createdAt,value
2017-06-15T00:01:15.677Z,19.80
2017-06-15T00:03:44.087Z,19.70
2017-06-15T00:06:11.716Z,19.60
2017-06-15T00:08:39.366Z,19.70
2017-06-15T00:11:07.757Z,19.60
2017-06-15T00:13:36.208Z,19.60
2017-06-15T00:16:03.837Z,19.60
2017-06-15T00:18:31.461Z,19.60
2017-06-15T00:20:59.896Z,19.60
2017-06-15T00:23:27.534Z,19.60
2017-06-15T00:25:55.213Z,19.60
2017-06-15T00:28:22.888Z,19.60
2017-06-15T00:30:50.514Z,19.60
2017-06-15T00:33:18.174Z,19.50
2017-06-15T00:35:45.820Z,19.50
2017-06-15T00:38:13.508Z,19.40
2017-06-15T00:40:41.151Z,19.40
2017-06-15T00:43:08.803Z,19.30
2017-06-15T00:45:36.472Z,19.30
2017-06-15T00:48:04.111Z,19.30
2017-06-15T00:50:32.533Z,19.20
2017-06-15T00:53:00.161Z,19.10
2017-06-15T00:55:27.844Z,19.10
2017-06-15T00:57:55.472Z,19.10
2017-06-15T01:00:23.910Z,19.00
2017-06-15T01:02:51.575Z,18.90
2017-06-15T01:05:19.211Z,19.00
2017-06-15T01:07:46.913Z,19.00
2017-06-15T01:10:14.578Z,18.90
2017-06-15T01:12:42.197Z,18.90
2017-06-15T01:15:09.842Z,18.90
2017-06-15T01:17:37.568Z,18.80
2017-06-15T01:20:05.411Z,18.80
2017-06-15T01:22:33.033Z,18.80
2017-06-15T01:25:00.661Z,18.80
2017-06-15T01:27:28.419Z,18.70
2017-06-15T01:29:56.042Z,18.70
2017-06-15T01:32:23.718Z,18.60
2017-06-15T01:34:51.398Z,18.60
2017-06-15T01:37:19.016Z,18.50
2017-06-15T01:39:46.679Z,18.50
2017-06-15T01:42:14.384Z,18.50
2017-06-15T01:44:42.235Z,18.50
2017-06-15T01:47:09.867Z,18.50
2017-06-15T01:49:37.663Z,18.50
2017-06-15T01:52:05.340Z,18.50
2017-06-15T01:54:32.984Z,18.50
2017-06-15T01:57:00.767Z,18.50
2017-06-15T01:59:28.525Z,18.50
2017-06-15T02:01:56.154Z,18.50
2017-06-15T02:04:23.813Z,18.40
2017-06-15T02:06:51.443Z,18.50
2017-06-15T02:09:19.890Z,18.40
2017-06-15T02:11:47.528Z,18.30
2017-06-15T02:14:15.156Z,18.40
2017-06-15T02:16:42.810Z,18.30
2017-06-15T02:19:10.544Z,18.30
2017-06-15T02:21:38.311Z,18.30
2017-06-15T02:24:05.930Z,18.30
2017-06-15T02:26:33.626Z,18.30
2017-06-15T02:29:01.263Z,18.30
2017-06-15T02:31:29.039Z,18.30
2017-06-15T02:33:56.685Z,18.20
2017-06-15T02:36:24.465Z,18.20
2017-06-15T02:38:52.225Z,18.20
2017-06-15T02:41:19.930Z,18.20
2017-06-15T02:43:48.386Z,18.10
2017-06-15T02:46:16.016Z,18.10
2017-06-15T02:48:43.637Z,18.10
2017-06-15T02:51:12.058Z,18.10
2017-06-15T02:53:39.677Z,18.00
2017-06-15T02:56:08.105Z,18.10
2017-06-15T02:58:35.805Z,18.00
2017-06-15T03:01:03.538Z,18.00
2017-06-15T03:03:31.224Z,18.00
2017-06-15T03:05:58.937Z,18.00
2017-06-15T03:08:26.593Z,18.00
2017-06-15T03:10:54.311Z,17.90
2017-06-15T03:13:22.054Z,17.90
2017-06-15T03:15:49.677Z,17.90
2017-06-15T03:18:17.343Z,17.80
2017-06-15T03:20:44.969Z,17.80
2017-06-15T03:23:12.597Z,17.80
2017-06-15T03:25:40.269Z,17.80
2017-06-15T03:28:07.944Z,17.80
2017-06-15T03:30:35.597Z,17.70
2017-06-15T03:33:03.226Z,17.80
2017-06-15T03:35:30.890Z,17.80
2017-06-15T03:37:58.669Z,17.80
2017-06-15T03:40:26.290Z,17.80
2017-06-15T03:42:53.993Z,17.80
2017-06-15T03:45:21.627Z,17.70
2017-06-15T03:47:49.278Z,17.80
2017-06-15T03:50:17.005Z,17.80
2017-06-15T03:52:44.670Z,17.80
2017-06-15T03:55:12.334Z,17.80
2017-06-15T03:57:39.982Z,17.80
2017-06-15T04:00:07.750Z,17.80
2017-06-15T04:02:35.493Z,17.80
2017-06-15T04:05:03.141Z,17.80
2017-06-15T04:07:30.841Z,17.80
2017-06-15T04:09:58.607Z,17.80
2017-06-15T04:12:26.346Z,17.90
2017-06-15T04:14:54.929Z,17.90
2017-06-15T04:17:22.578Z,17.90
2017-06-15T04:19:50.268Z,18.00
2017-06-15T04:22:17.946Z,18.00
2017-06-15T04:24:45.615Z,18.00
2017-06-15T04:27:14.160Z,18.10
2017-06-15T04:29:41.924Z,18.10
2017-06-15T04:32:09.584Z,18.10
2017-06-15T04:34:37.369Z,18.20
2017-06-15T04:37:05.012Z,18.20
2017-06-15T04:39:32.676Z,18.30
2017-06-15T04:42:00.439Z,18.30
2017-06-15T04:44:28.202Z,18.40
2017-06-15T04:46:55.829Z,18.40
2017-06-15T04:49:23.453Z,18.50
2017-06-15T04:51:51.185Z,18.50
2017-06-15T04:54:18.847Z,18.60
2017-06-15T04:56:46.497Z,18.60
2017-06-15T04:59:14.275Z,18.70
2017-06-15T05:01:41.946Z,18.70
2017-06-15T05:04:09.804Z,18.80
2017-06-15T05:06:37.426Z,18.80
2017-06-15T05:09:05.091Z,18.80
2017-06-15T05:11:32.892Z,18.90
2017-06-15T05:14:00.541Z,18.90
2017-06-15T05:16:28.161Z,18.90
2017-06-15T05:18:56.616Z,19.00
2017-06-15T05:21:24.357Z,19.00
2017-06-15T05:23:51.981Z,19.10
2017-06-15T05:26:19.987Z,19.20
2017-06-15T05:28:48.572Z,19.30
2017-06-15T05:31:16.227Z,19.20
2017-06-15T05:33:43.910Z,19.40
2017-06-15T05:36:11.658Z,19.40
2017-06-15T05:38:39.345Z,19.50
2017-06-15T05:41:07.188Z,19.60
2017-06-15T05:43:34.882Z,19.70
2017-06-15T05:46:02.614Z,19.70
2017-06-15T05:48:30.266Z,19.80
2017-06-15T05:50:57.886Z,19.90
2017-06-15T05:53:26.318Z,20.00
2017-06-15T05:55:53.942Z,20.00
2017-06-15T05:58:21.586Z,20.10
2017-06-15T06:00:49.238Z,20.10
2017-06-15T06:03:16.882Z,20.30
2017-06-15T06:05:44.529Z,20.40
2017-06-15T06:08:12.149Z,20.50
2017-06-15T06:10:39.828Z,20.60
2017-06-15T06:13:07.449Z,20.70
2017-06-15T06:15:35.094Z,20.80
2017-06-15T06:18:02.763Z,20.90
2017-06-15T06:20:30.397Z,21.00
2017-06-15T06:22:58.067Z,21.10
2017-06-15T06:25:25.689Z,21.10
2017-06-15T06:27:53.361Z,21.30
2017-06-15T06:30:20.997Z,21.40
2017-06-15T06:32:48.631Z,21.40
2017-06-15T06:35:16.297Z,21.50
2017-06-15T06:37:44.689Z,21.70
2017-06-15T06:40:13.118Z,21.80
2017-06-15T06:42:40.778Z,21.70
2017-06-15T06:45:08.468Z,21.80
2017-06-15T06:47:36.103Z,21.90
2017-06-15T06:50:03.727Z,22.00
2017-06-15T06:52:31.377Z,22.10
2017-06-15T06:54:59.768Z,22.40
2017-06-15T06:57:27.422Z,22.30
2017-06-15T06:59:55.127Z,22.50
2017-06-15T07:02:23.025Z,22.60
2017-06-15T07:04:50.762Z,22.70
2017-06-15T07:07:18.424Z,22.80
2017-06-15T07:09:46.101Z,22.90
2017-06-15T07:12:13.872Z,22.90
2017-06-15T07:14:41.541Z,23.00
2017-06-15T07:17:09.190Z,23.00
2017-06-15T07:19:37.039Z,23.10
2017-06-15T07:22:04.803Z,23.30
2017-06-15T07:24:32.426Z,23.30
2017-06-15T07:27:00.091Z,23.40
2017-06-15T07:29:27.806Z,23.50
2017-06-15T07:31:55.459Z,23.50
2017-06-15T07:34:23.086Z,23.50
2017-06-15T07:36:50.900Z,23.50
2017-06-15T07:39:18.562Z,23.60
2017-06-15T07:41:47.137Z,23.70
2017-06-15T07:44:14.801Z,23.80
2017-06-15T07:46:42.549Z,23.80
2017-06-15T07:49:10.225Z,23.90
2017-06-15T07:51:37.974Z,23.90
2017-06-15T07:54:05.601Z,23.90
2017-06-15T07:56:33.297Z,24.00
2017-06-15T07:59:00.950Z,24.10
2017-06-15T08:01:28.623Z,24.10
2017-06-15T08:03:56.304Z,24.30
2017-06-15T08:06:24.100Z,24.40
2017-06-15T08:08:52.733Z,24.70
2017-06-15T08:11:20.421Z,24.60
2017-06-15T08:13:48.159Z,24.80
2017-06-15T08:16:15.842Z,24.90
2017-06-15T08:18:43.531Z,24.90
2017-06-15T08:21:11.939Z,25.10
2017-06-15T08:23:39.729Z,25.10
2017-06-15T08:26:07.405Z,25.30
2017-06-15T08:28:35.025Z,25.40
2017-06-15T08:31:02.714Z,25.60
2017-06-15T08:33:30.403Z,25.70
2017-06-15T08:35:58.243Z,25.90
2017-06-15T08:38:26.008Z,26.10
2017-06-15T08:40:53.773Z,26.30
2017-06-15T08:43:21.537Z,26.50
2017-06-15T08:45:49.169Z,26.80
2017-06-15T08:48:16.825Z,26.90
2017-06-15T08:50:44.538Z,27.10
2017-06-15T08:53:12.205Z,27.30
2017-06-15T08:55:39.831Z,27.40
2017-06-15T08:58:07.471Z,27.50
2017-06-15T09:00:35.167Z,27.60
2017-06-15T09:03:02.796Z,27.70
2017-06-15T09:05:30.463Z,27.80
2017-06-15T09:07:58.253Z,27.80
2017-06-15T09:10:25.927Z,27.90
2017-06-15T09:12:53.602Z,28.10
2017-06-15T09:15:21.456Z,28.10
2017-06-15T09:17:49.112Z,28.10
2017-06-15T09:20:16.734Z,28.10
2017-06-15T09:22:44.404Z,28.10
2017-06-15T09:25:12.104Z,28.20
2017-06-15T09:27:39.854Z,28.30
2017-06-15T09:30:07.485Z,28.30
2017-06-15T09:32:35.282Z,28.40
2017-06-15T09:35:03.047Z,28.50
2017-06-15T09:37:30.912Z,28.50
2017-06-15T09:39:58.676Z,28.50
2017-06-15T09:42:26.337Z,28.60
2017-06-15T09:44:54.001Z,28.60
2017-06-15T09:47:21.672Z,28.60
2017-06-15T09:49:49.325Z,28.70
2017-06-15T09:52:17.115Z,28.70
2017-06-15T09:54:44.747Z,28.80
2017-06-15T09:57:12.386Z,28.90
2017-06-15T09:59:40.196Z,29.00
2017-06-15T10:02:07.962Z,29.00
2017-06-15T10:04:35.717Z,29.10
2017-06-15T10:07:03.388Z,29.20
2017-06-15T10:09:31.021Z,29.30
2017-06-15T10:11:58.794Z,29.40
2017-06-15T10:14:26.596Z,29.50
2017-06-15T10:16:55.140Z,29.70
2017-06-15T10:19:22.908Z,29.60
2017-06-15T10:21:50.769Z,29.80
2017-06-15T10:24:18.394Z,29.90
2017-06-15T10:26:46.122Z,29.90
2017-06-15T10:29:13.778Z,30.00
2017-06-15T10:31:41.522Z,30.10
2017-06-15T10:34:09.285Z,30.10
2017-06-15T10:36:36.916Z,30.20
2017-06-15T10:39:04.608Z,30.30
2017-06-15T10:41:32.235Z,30.40
2017-06-15T10:43:59.858Z,30.40
2017-06-15T10:46:27.508Z,30.50
2017-06-15T10:48:55.255Z,30.50
2017-06-15T10:51:23.122Z,30.60
2017-06-15T10:53:50.800Z,30.70
2017-06-15T10:56:18.471Z,30.80
2017-06-15T10:58:46.131Z,30.90
2017-06-15T11:01:13.872Z,31.00
2017-06-15T11:03:41.530Z,31.00
2017-06-15T11:06:09.165Z,31.00
2017-06-15T11:08:36.821Z,31.10
2017-06-15T11:11:04.463Z,31.10
2017-06-15T11:13:32.182Z,31.20
2017-06-15T11:15:59.810Z,31.30
2017-06-15T11:18:27.505Z,31.40
2017-06-15T11:20:55.156Z,31.40
2017-06-15T11:23:22.930Z,31.40
2017-06-15T11:25:50.695Z,31.50
2017-06-15T11:28:18.384Z,31.50
2017-06-15T11:30:46.053Z,31.70
2017-06-15T11:33:13.692Z,31.80
2017-06-15T11:35:41.314Z,31.90
2017-06-15T11:38:08.981Z,32.00
2017-06-15T11:40:36.608Z,32.10
2017-06-15T11:43:04.280Z,32.10
2017-06-15T11:45:31.903Z,32.20
2017-06-15T11:47:59.573Z,32.20
2017-06-15T11:50:27.220Z,32.20
2017-06-15T11:52:54.850Z,32.30
2017-06-15T11:55:22.513Z,32.30
2017-06-15T11:57:50.132Z,32.40
2017-06-15T12:00:20.389Z,32.40
2017-06-15T12:02:48.013Z,32.40
2017-06-15T12:05:15.691Z,32.40
2017-06-15T12:07:44.107Z,32.40
2017-06-15T12:10:11.755Z,32.40
2017-06-15T12:12:39.427Z,32.50
2017-06-15T12:15:07.122Z,32.50
2017-06-15T12:17:34.972Z,32.60
2017-06-15T12:20:02.619Z,32.60
2017-06-15T12:22:30.308Z,32.60
2017-06-15T12:24:58.064Z,32.60
2017-06-15T12:27:25.686Z,32.70
2017-06-15T12:29:53.350Z,32.70
2017-06-15T12:32:21.148Z,32.70
2017-06-15T12:34:48.797Z,32.80
2017-06-15T12:37:16.488Z,32.80
2017-06-15T12:39:44.187Z,32.80
2017-06-15T12:42:12.720Z,32.80
2017-06-15T12:44:40.358Z,32.70
2017-06-15T12:47:08.024Z,32.90
2017-06-15T12:49:35.678Z,32.90
2017-06-15T12:52:03.346Z,32.90
2017-06-15T12:54:31.023Z,32.90
2017-06-15T12:56:58.994Z,33.00
2017-06-15T12:59:26.673Z,33.00
2017-06-15T13:01:54.312Z,33.00
2017-06-15T13:04:22.082Z,33.00
2017-06-15T13:06:49.714Z,33.00
2017-06-15T13:09:17.409Z,32.90
2017-06-15T13:11:45.167Z,32.90
2017-06-15T13:14:13.036Z,32.80
2017-06-15T13:16:40.800Z,32.70
2017-06-15T13:19:09.080Z,32.70
2017-06-15T13:21:36.841Z,32.60
2017-06-15T13:24:04.502Z,32.60
2017-06-15T13:26:32.191Z,32.50
2017-06-15T13:28:59.848Z,32.40
2017-06-15T13:31:27.697Z,32.30
2017-06-15T13:33:55.328Z,32.30
2017-06-15T13:36:22.953Z,32.20
2017-06-15T13:38:50.832Z,32.10
2017-06-15T13:41:19.318Z,32.00
2017-06-15T13:43:46.973Z,32.00
2017-06-15T13:46:15.357Z,31.90
2017-06-15T13:48:43.994Z,31.80
2017-06-15T13:51:11.754Z,31.80
2017-06-15T13:53:39.440Z,31.80
2017-06-15T13:56:07.181Z,31.70
2017-06-15T13:58:34.816Z,31.60
2017-06-15T14:01:02.471Z,31.60
2017-06-15T14:03:30.186Z,31.50
2017-06-15T14:05:57.857Z,31.50
2017-06-15T14:08:25.478Z,31.40
2017-06-15T14:10:53.148Z,31.40
2017-06-15T14:13:20.913Z,31.40
2017-06-15T14:15:48.539Z,31.30
2017-06-15T14:18:16.339Z,31.30
2017-06-15T14:20:44.026Z,31.20
2017-06-15T14:23:11.868Z,31.20
2017-06-15T14:25:39.516Z,31.20
2017-06-15T14:28:07.233Z,31.20
2017-06-15T14:30:35.058Z,31.20
2017-06-15T14:33:02.719Z,31.10
2017-06-15T14:35:30.375Z,31.10
2017-06-15T14:37:58.015Z,31.10
2017-06-15T14:40:25.807Z,31.10
2017-06-15T14:42:53.574Z,31.10
2017-06-15T14:45:21.238Z,31.10
2017-06-15T14:47:48.919Z,31.10
2017-06-15T14:50:16.561Z,31.10
2017-06-15T14:52:44.439Z,31.10
2017-06-15T14:55:12.113Z,31.10
2017-06-15T14:57:39.866Z,31.10
2017-06-15T15:00:07.535Z,31.00
2017-06-15T15:02:35.161Z,31.00
2017-06-15T15:05:02.809Z,31.00
2017-06-15T15:07:30.437Z,31.00
2017-06-15T15:09:58.261Z,31.00
2017-06-15T15:12:25.922Z,31.00
2017-06-15T15:14:53.575Z,31.00
2017-06-15T15:17:21.351Z,31.00
2017-06-15T15:19:49.018Z,31.00
2017-06-15T15:22:16.670Z,31.00
2017-06-15T15:24:44.439Z,30.90
2017-06-15T15:27:14.467Z,30.90
2017-06-15T15:29:44.547Z,30.90
2017-06-15T15:32:13.732Z,30.90
2017-06-15T15:34:43.455Z,30.90
2017-06-15T15:37:13.138Z,30.80
2017-06-15T15:39:42.174Z,30.80
2017-06-15T15:42:09.938Z,30.80
2017-06-15T15:44:37.815Z,30.80
2017-06-15T15:47:07.897Z,30.70
2017-06-15T15:49:35.824Z,30.70
2017-06-15T15:52:03.582Z,30.70
2017-06-15T15:54:31.273Z,30.70
2017-06-15T15:57:01.645Z,30.70
2017-06-15T15:59:29.521Z,30.70
2017-06-15T16:01:57.289Z,30.60
2017-06-15T16:04:24.971Z,30.60
2017-06-15T16:06:52.713Z,30.60
2017-06-15T16:09:20.371Z,30.50
2017-06-15T16:11:48.172Z,30.50
2017-06-15T16:14:16.720Z,30.40
2017-06-15T16:16:44.500Z,30.40
2017-06-15T16:19:12.249Z,30.40
2017-06-15T16:21:39.937Z,30.40
2017-06-15T16:24:07.777Z,30.40
2017-06-15T16:26:35.543Z,30.30
2017-06-15T16:29:03.210Z,30.30
2017-06-15T16:31:30.861Z,30.30
2017-06-15T16:33:58.548Z,30.30
2017-06-15T16:36:26.203Z,30.30
2017-06-15T16:38:53.848Z,30.30
2017-06-15T16:41:21.639Z,30.20
2017-06-15T16:43:49.379Z,30.20
2017-06-15T16:46:17.243Z,30.20
2017-06-15T16:48:45.010Z,30.20
2017-06-15T16:51:12.774Z,30.20
2017-06-15T16:53:40.427Z,30.10
2017-06-15T16:56:08.114Z,30.10
2017-06-15T16:58:35.781Z,30.00
2017-06-15T17:01:03.639Z,30.00
2017-06-15T17:03:31.279Z,30.00
2017-06-15T17:05:58.975Z,30.00
2017-06-15T17:08:26.636Z,29.90
2017-06-15T17:10:54.392Z,29.80
2017-06-15T17:13:22.064Z,29.80
2017-06-15T17:15:49.799Z,29.80
2017-06-15T17:18:17.564Z,29.70
2017-06-15T17:20:45.228Z,29.60
2017-06-15T17:23:12.912Z,29.60
2017-06-15T17:25:40.534Z,29.50
2017-06-15T17:28:08.324Z,29.50
2017-06-15T17:30:35.975Z,29.40
2017-06-15T17:33:03.603Z,29.40
2017-06-15T17:35:31.274Z,29.40
2017-06-15T17:37:58.918Z,29.30
2017-06-15T17:40:26.597Z,29.30
2017-06-15T17:42:54.232Z,29.20
2017-06-15T17:45:21.870Z,29.10
2017-06-15T17:47:49.671Z,29.00
2017-06-15T17:50:17.446Z,29.00
2017-06-15T17:52:45.354Z,29.00
2017-06-15T17:55:13.234Z,28.90
2017-06-15T17:57:41.096Z,28.80
2017-06-15T18:00:08.760Z,28.80
2017-06-15T18:02:36.626Z,28.80
2017-06-15T18:05:04.438Z,28.70
2017-06-15T18:07:32.258Z,28.60
2017-06-15T18:10:00.060Z,28.60
2017-06-15T18:12:27.836Z,28.50
2017-06-15T18:14:57.920Z,28.40
2017-06-15T18:17:27.723Z,28.30
2017-06-15T18:19:59.072Z,28.20
2017-06-15T18:22:29.156Z,28.10
2017-06-15T18:24:57.585Z,28.00
2017-06-15T18:27:26.694Z,27.90
2017-06-15T18:29:54.835Z,27.90
2017-06-15T18:32:22.653Z,27.80
2017-06-15T18:34:50.437Z,27.70
2017-06-15T18:37:18.209Z,27.60
2017-06-15T18:39:45.962Z,27.50
2017-06-15T18:42:13.736Z,27.40
2017-06-15T18:44:42.404Z,27.40
2017-06-15T18:47:10.163Z,27.30
2017-06-15T18:49:37.967Z,27.20
2017-06-15T18:52:05.741Z,27.10
2017-06-15T18:54:33.560Z,27.10
2017-06-15T18:57:01.325Z,27.00
2017-06-15T18:59:29.185Z,26.90
2017-06-15T19:01:56.953Z,26.90
2017-06-15T19:04:24.722Z,26.90
2017-06-15T19:06:52.543Z,26.80
2017-06-15T19:09:21.088Z,26.70
2017-06-15T19:11:48.931Z,26.60
2017-06-15T19:14:16.702Z,26.60
2017-06-15T19:16:44.528Z,26.50
2017-06-15T19:19:13.088Z,26.40
2017-06-15T19:21:40.944Z,26.30
2017-06-15T19:24:08.931Z,26.30
2017-06-15T19:26:36.789Z,26.20
2017-06-15T19:29:04.651Z,26.10
2017-06-15T19:31:32.513Z,26.10
2017-06-15T19:34:00.390Z,26.00
2017-06-15T19:36:28.191Z,26.00
2017-06-15T19:38:55.991Z,25.90
2017-06-15T19:41:23.813Z,25.80
2017-06-15T19:43:52.348Z,25.70
2017-06-15T19:46:20.157Z,25.70
2017-06-15T19:48:48.692Z,25.60
2017-06-15T19:51:17.509Z,25.60
2017-06-15T19:53:45.294Z,25.60
2017-06-15T19:56:13.799Z,25.40
2017-06-15T19:58:41.473Z,25.40
2017-06-15T20:01:09.124Z,25.40
2017-06-15T20:03:36.786Z,25.30
2017-06-15T20:06:04.429Z,25.30
2017-06-15T20:08:32.112Z,25.30
2017-06-15T20:10:59.737Z,25.20
2017-06-15T20:13:28.136Z,25.10
2017-06-15T20:15:55.798Z,25.10
2017-06-15T20:18:23.426Z,25.10
2017-06-15T20:20:56.112Z,25.10
2017-06-15T20:23:25.557Z,25.10
2017-06-15T20:25:53.251Z,25.10
2017-06-15T20:28:21.321Z,25.00
2017-06-15T20:30:49.107Z,24.90
2017-06-15T20:33:22.405Z,24.90
2017-06-15T20:35:50.164Z,24.90
2017-06-15T20:38:17.829Z,24.80
2017-06-15T20:40:45.452Z,24.80
2017-06-15T20:43:13.105Z,24.80
2017-06-15T20:45:40.911Z,24.80
2017-06-15T20:48:08.778Z,24.70
2017-06-15T20:50:37.300Z,24.60
2017-06-15T20:53:05.139Z,24.60
2017-06-15T20:55:32.762Z,24.60
2017-06-15T20:58:04.321Z,24.60
2017-06-15T21:00:33.434Z,24.60
2017-06-15T21:03:01.073Z,24.60
2017-06-15T21:05:28.743Z,24.60
2017-06-15T21:07:56.422Z,24.50
2017-06-15T21:10:24.160Z,24.50
2017-06-15T21:12:51.945Z,24.50
2017-06-15T21:15:19.717Z,24.50
2017-06-15T21:17:47.499Z,24.50
2017-06-15T21:20:18.278Z,24.40
2017-06-15T21:22:49.260Z,24.40
2017-06-15T21:25:17.195Z,24.30
2017-06-15T21:27:44.957Z,24.40
2017-06-15T21:30:12.713Z,24.40
2017-06-15T21:32:40.488Z,24.40
2017-06-15T21:35:08.338Z,24.40
2017-06-15T21:37:36.104Z,24.40
2017-06-15T21:40:03.771Z,24.30
2017-06-15T21:42:31.421Z,24.40
2017-06-15T21:44:59.089Z,24.30
2017-06-15T21:47:26.728Z,24.30
2017-06-15T21:49:54.357Z,24.30
2017-06-15T21:52:22.027Z,24.30
2017-06-15T21:54:49.668Z,24.20
2017-06-15T21:57:17.885Z,24.20
2017-06-15T21:59:45.513Z,24.20
2017-06-15T22:02:13.366Z,24.20
2017-06-15T22:04:41.004Z,24.20
2017-06-15T22:07:08.631Z,24.20
2017-06-15T22:09:36.333Z,24.10
2017-06-15T22:12:03.967Z,24.10
2017-06-15T22:14:31.643Z,24.10
2017-06-15T22:16:59.273Z,24.10
2017-06-15T22:19:27.679Z,24.00
2017-06-15T22:21:55.338Z,24.00
2017-06-15T22:24:22.968Z,24.00
2017-06-15T22:26:51.409Z,23.90
2017-06-15T22:29:19.037Z,23.90
2017-06-15T22:31:46.675Z,24.00
2017-06-15T22:34:15.109Z,23.90
2017-06-15T22:36:42.752Z,23.80
2017-06-15T22:39:10.438Z,23.90
2017-06-15T22:41:38.117Z,23.80
2017-06-15T22:44:05.761Z,23.80
2017-06-15T22:46:33.435Z,23.70
2017-06-15T22:49:01.079Z,23.70
2017-06-15T22:51:28.753Z,23.70
2017-06-15T22:53:56.418Z,23.60
2017-06-15T22:56:24.061Z,23.60
2017-06-15T22:58:51.735Z,23.60
2017-06-15T23:01:19.370Z,23.50
2017-06-15T23:03:47.931Z,23.50
2017-06-15T23:06:15.561Z,23.50
2017-06-15T23:08:43.239Z,23.40
2017-06-15T23:11:11.633Z,23.40
2017-06-15T23:13:39.261Z,23.30
2017-06-15T23:16:06.933Z,23.30
2017-06-15T23:18:34.579Z,23.30
2017-06-15T23:21:02.240Z,23.20
2017-06-15T23:23:29.895Z,23.20
2017-06-15T23:25:57.584Z,23.20
2017-06-15T23:28:26.006Z,23.10
2017-06-15T23:30:53.638Z,23.00
2017-06-15T23:33:22.053Z,23.00
2017-06-15T23:35:49.705Z,22.90
2017-06-15T23:38:17.361Z,23.00
2017-06-15T23:40:45.001Z,22.90
2017-06-15T23:43:13.469Z,22.90
2017-06-15T23:48:15.141Z,22.90
2017-06-15T23:50:43.544Z,22.80
2017-06-15T23:53:11.169Z,22.70
2017-06-15T23:55:38.839Z,22.80
2017-06-15T23:58:06.486Z,22.70
